sensor_id;sensor_type;location;lat;lon;timestamp;P1;P2;P0
55276;PMS5003;41136;51.478;-2.610;2023-05-08T00:01:39;3;3;
55276;PMS5003;41136;51.478;-2.610;2023-05-08T00:04:04;4;4;
55276;PMS5003;41136;51.478;-2.610;2023-05-08T00:06:30;4;4;
55276;PMS5003;41136;51.478;-2.610;2023-05-08T00:08:55;6;6;
55276;PMS5003;41136;51.478;-2.610;2023-05-08T00:11:20;6;6;
55276;PMS5003;41136;51.478;-2.610;2023-05-08T00:13:46;2;2;
55276;PMS5003;41136;51.478;-2.610;2023-05-08T00:16:11;5;5;
55276;PMS5003;41136;51.478;-2.610;2023-05-08T00:18:36;6;6;
55276;PMS5003;41136;51.478;-2.610;2023-05-08T00:21:02;4;4;
55276;PMS5003;41136;51.478;-2.610;2023-05-08T00:23:27;5;5;
55276;PMS5003;41136;51.478;-2.610;2023-05-08T00:25:52;7;7;
55276;PMS5003;41136;51.478;-2.610;2023-05-08T00:28:18;5;5;
55276;PMS5003;41136;51.478;-2.610;2023-05-08T00:30:43;8;6;
55276;PMS5003;41136;51.478;-2.610;2023-05-08T00:33:08;5;5;
55276;PMS5003;41136;51.478;-2.610;2023-05-08T00:35:34;8;7;
55276;PMS5003;41136;51.478;-2.610;2023-05-08T00:37:59;9;7;
55276;PMS5003;41136;51.478;-2.610;2023-05-08T00:40:24;7;6;
55276;PMS5003;41136;51.478;-2.610;2023-05-08T00:42:50;6;6;
55276;PMS5003;41136;51.478;-2.610;2023-05-08T00:45:15;5;5;
55276;PMS5003;41136;51.478;-2.610;2023-05-08T00:47:40;8;7;
55276;PMS5003;41136;51.478;-2.610;2023-05-08T00:50:06;6;5;
55276;PMS5003;41136;51.478;-2.610;2023-05-08T00:52:31;8;5;
55276;PMS5003;41136;51.478;-2.610;2023-05-08T00:54:56;10;7;
55276;PMS5003;41136;51.478;-2.610;2023-05-08T00:57:22;6;6;
55276;PMS5003;41136;51.478;-2.610;2023-05-08T00:59:47;7;7;
55276;PMS5003;41136;51.478;-2.610;2023-05-08T01:02:12;5;5;
55276;PMS5003;41136;51.478;-2.610;2023-05-08T01:04:37;7;7;
55276;PMS5003;41136;51.478;-2.610;2023-05-08T01:07:03;6;6;
55276;PMS5003;41136;51.478;-2.610;2023-05-08T01:09:28;6;4;
55276;PMS5003;41136;51.478;-2.610;2023-05-08T01:11:55;5;4;
55276;PMS5003;41136;51.478;-2.610;2023-05-08T01:14:19;6;6;
55276;PMS5003;41136;51.478;-2.610;2023-05-08T01:16:47;6;6;
55276;PMS5003;41136;51.478;-2.610;2023-05-08T01:21:37;6;6;
55276;PMS5003;41136;51.478;-2.610;2023-05-08T01:24:08;6;6;
55276;PMS5003;41136;51.478;-2.610;2023-05-08T01:26:32;6;6;
55276;PMS5003;41136;51.478;-2.610;2023-05-08T01:31:20;6;6;
55276;PMS5003;41136;51.478;-2.610;2023-05-08T01:33:45;6;5;
55276;PMS5003;41136;51.478;-2.610;2023-05-08T01:36:12;5;5;
55276;PMS5003;41136;51.478;-2.610;2023-05-08T01:38:36;7;6;
55276;PMS5003;41136;51.478;-2.610;2023-05-08T01:41:01;7;6;
55276;PMS5003;41136;51.478;-2.610;2023-05-08T01:43:25;7;7;
55276;PMS5003;41136;51.478;-2.610;2023-05-08T01:45:50;5;5;
55276;PMS5003;41136;51.478;-2.610;2023-05-08T01:48:16;9;7;
55276;PMS5003;41136;51.478;-2.610;2023-05-08T01:50:41;8;6;
55276;PMS5003;41136;51.478;-2.610;2023-05-08T01:53:07;8;8;
55276;PMS5003;41136;51.478;-2.610;2023-05-08T01:55:33;9;7;
55276;PMS5003;41136;51.478;-2.610;2023-05-08T01:57:57;7;7;
55276;PMS5003;41136;51.478;-2.610;2023-05-08T02:00:22;9;9;
55276;PMS5003;41136;51.478;-2.610;2023-05-08T02:02:47;11;10;
55276;PMS5003;41136;51.478;-2.610;2023-05-08T02:05:13;12;12;
55276;PMS5003;41136;51.478;-2.610;2023-05-08T02:07:39;10;10;
55276;PMS5003;41136;51.478;-2.610;2023-05-08T02:10:04;11;9;
55276;PMS5003;41136;51.478;-2.610;2023-05-08T02:12:29;10;10;
55276;PMS5003;41136;51.478;-2.610;2023-05-08T02:14:54;13;12;
55276;PMS5003;41136;51.478;-2.610;2023-05-08T02:17:20;9;9;
55276;PMS5003;41136;51.478;-2.610;2023-05-08T02:19:46;13;12;
55276;PMS5003;41136;51.478;-2.610;2023-05-08T02:22:11;12;12;
55276;PMS5003;41136;51.478;-2.610;2023-05-08T02:24:37;12;12;
55276;PMS5003;41136;51.478;-2.610;2023-05-08T02:27:02;15;14;
55276;PMS5003;41136;51.478;-2.610;2023-05-08T02:29:27;13;12;
55276;PMS5003;41136;51.478;-2.610;2023-05-08T02:31:52;14;14;
55276;PMS5003;41136;51.478;-2.610;2023-05-08T02:34:18;14;14;
55276;PMS5003;41136;51.478;-2.610;2023-05-08T02:36:43;18;13;
55276;PMS5003;41136;51.478;-2.610;2023-05-08T02:39:10;15;13;
55276;PMS5003;41136;51.478;-2.610;2023-05-08T02:41:34;14;14;
55276;PMS5003;41136;51.478;-2.610;2023-05-08T02:44:00;16;14;
55276;PMS5003;41136;51.478;-2.610;2023-05-08T02:46:28;17;14;
55276;PMS5003;41136;51.478;-2.610;2023-05-08T02:48:54;13;12;
55276;PMS5003;41136;51.478;-2.610;2023-05-08T02:51:17;12;11;
55276;PMS5003;41136;51.478;-2.610;2023-05-08T02:53:44;15;12;
55276;PMS5003;41136;51.478;-2.610;2023-05-08T02:56:08;17;16;
55276;PMS5003;41136;51.478;-2.610;2023-05-08T02:58:34;10;10;
55276;PMS5003;41136;51.478;-2.610;2023-05-08T03:00:58;13;11;
55276;PMS5003;41136;51.478;-2.610;2023-05-08T03:03:24;14;14;
55276;PMS5003;41136;51.478;-2.610;2023-05-08T03:05:50;9;9;
55276;PMS5003;41136;51.478;-2.610;2023-05-08T03:08:15;16;15;
55276;PMS5003;41136;51.478;-2.610;2023-05-08T03:10:40;16;12;
55276;PMS5003;41136;51.478;-2.610;2023-05-08T03:13:06;13;13;
55276;PMS5003;41136;51.478;-2.610;2023-05-08T03:15:32;14;13;
55276;PMS5003;41136;51.478;-2.610;2023-05-08T03:17:57;11;11;
55276;PMS5003;41136;51.478;-2.610;2023-05-08T03:20:23;10;10;
55276;PMS5003;41136;51.478;-2.610;2023-05-08T03:22:47;10;10;
55276;PMS5003;41136;51.478;-2.610;2023-05-08T03:25:14;14;14;
55276;PMS5003;41136;51.478;-2.610;2023-05-08T03:27:39;13;10;
55276;PMS5003;41136;51.478;-2.610;2023-05-08T03:30:05;14;12;
55276;PMS5003;41136;51.478;-2.610;2023-05-08T03:32:30;11;11;
55276;PMS5003;41136;51.478;-2.610;2023-05-08T03:34:57;8;8;
55276;PMS5003;41136;51.478;-2.610;2023-05-08T03:37:21;12;10;
55276;PMS5003;41136;51.478;-2.610;2023-05-08T03:39:47;10;10;
55276;PMS5003;41136;51.478;-2.610;2023-05-08T03:42:13;10;10;
55276;PMS5003;41136;51.478;-2.610;2023-05-08T03:44:38;11;10;
55276;PMS5003;41136;51.478;-2.610;2023-05-08T03:47:04;8;8;
55276;PMS5003;41136;51.478;-2.610;2023-05-08T03:49:29;11;11;
55276;PMS5003;41136;51.478;-2.610;2023-05-08T03:51:55;9;9;
55276;PMS5003;41136;51.478;-2.610;2023-05-08T03:54:20;10;9;
55276;PMS5003;41136;51.478;-2.610;2023-05-08T03:56:45;7;7;
55276;PMS5003;41136;51.478;-2.610;2023-05-08T03:59:12;12;9;
55276;PMS5003;41136;51.478;-2.610;2023-05-08T04:01:36;7;6;
55276;PMS5003;41136;51.478;-2.610;2023-05-08T04:04:03;8;8;
55276;PMS5003;41136;51.478;-2.610;2023-05-08T04:06:27;11;10;
55276;PMS5003;41136;51.478;-2.610;2023-05-08T04:08:52;11;11;
55276;PMS5003;41136;51.478;-2.610;2023-05-08T04:11:24;7;7;
55276;PMS5003;41136;51.478;-2.610;2023-05-08T04:13:42;6;5;
55276;PMS5003;41136;51.478;-2.610;2023-05-08T04:16:14;7;7;
55276;PMS5003;41136;51.478;-2.610;2023-05-08T04:18:33;8;7;
55276;PMS5003;41136;51.478;-2.610;2023-05-08T04:20:58;7;6;
55276;PMS5003;41136;51.478;-2.610;2023-05-08T04:23:23;8;8;
55276;PMS5003;41136;51.478;-2.610;2023-05-08T04:25:50;8;6;
55276;PMS5003;41136;51.478;-2.610;2023-05-08T04:28:14;9;6;
55276;PMS5003;41136;51.478;-2.610;2023-05-08T04:33:41;5;5;
55276;PMS5003;41136;51.478;-2.610;2023-05-08T04:36:09;5;5;
55276;PMS5003;41136;51.478;-2.610;2023-05-08T04:40:14;6;6;
55276;PMS5003;41136;51.478;-2.610;2023-05-08T04:42:39;6;6;
55276;PMS5003;41136;51.478;-2.610;2023-05-08T04:45:04;8;8;
55276;PMS5003;41136;51.478;-2.610;2023-05-08T04:47:29;8;8;
55276;PMS5003;41136;51.478;-2.610;2023-05-08T04:49:55;8;8;
55276;PMS5003;41136;51.478;-2.610;2023-05-08T04:52:20;7;5;
55276;PMS5003;41136;51.478;-2.610;2023-05-08T04:54:46;8;8;
55276;PMS5003;41136;51.478;-2.610;2023-05-08T04:57:11;7;7;
55276;PMS5003;41136;51.478;-2.610;2023-05-08T04:59:36;6;5;
55276;PMS5003;41136;51.478;-2.610;2023-05-08T05:02:02;7;5;
55276;PMS5003;41136;51.478;-2.610;2023-05-08T05:04:27;7;7;
55276;PMS5003;41136;51.478;-2.610;2023-05-08T05:06:52;7;7;
55276;PMS5003;41136;51.478;-2.610;2023-05-08T05:09:18;9;8;
55276;PMS5003;41136;51.478;-2.610;2023-05-08T05:11:43;7;7;
55276;PMS5003;41136;51.478;-2.610;2023-05-08T05:14:08;7;7;
55276;PMS5003;41136;51.478;-2.610;2023-05-08T05:16:34;9;7;
55276;PMS5003;41136;51.478;-2.610;2023-05-08T05:19:00;7;7;
55276;PMS5003;41136;51.478;-2.610;2023-05-08T05:21:25;10;7;
55276;PMS5003;41136;51.478;-2.610;2023-05-08T05:23:50;8;8;
55276;PMS5003;41136;51.478;-2.610;2023-05-08T05:26:16;12;7;
55276;PMS5003;41136;51.478;-2.610;2023-05-08T05:28:42;8;7;
55276;PMS5003;41136;51.478;-2.610;2023-05-08T05:31:07;10;9;
55276;PMS5003;41136;51.478;-2.610;2023-05-08T05:33:33;12;11;
55276;PMS5003;41136;51.478;-2.610;2023-05-08T05:35:58;11;6;
55276;PMS5003;41136;51.478;-2.610;2023-05-08T05:38:23;8;8;
55276;PMS5003;41136;51.478;-2.610;2023-05-08T05:40:49;11;11;
55276;PMS5003;41136;51.478;-2.610;2023-05-08T05:43:14;11;9;
55276;PMS5003;41136;51.478;-2.610;2023-05-08T05:45:39;8;7;
55276;PMS5003;41136;51.478;-2.610;2023-05-08T05:48:05;8;8;
55276;PMS5003;41136;51.478;-2.610;2023-05-08T05:50:30;9;8;
55276;PMS5003;41136;51.478;-2.610;2023-05-08T05:52:55;11;10;
55276;PMS5003;41136;51.478;-2.610;2023-05-08T05:55:21;5;5;
55276;PMS5003;41136;51.478;-2.610;2023-05-08T05:57:46;10;10;
55276;PMS5003;41136;51.478;-2.610;2023-05-08T06:00:12;12;10;
55276;PMS5003;41136;51.478;-2.610;2023-05-08T06:02:37;11;11;
55276;PMS5003;41136;51.478;-2.610;2023-05-08T06:05:02;8;8;
55276;PMS5003;41136;51.478;-2.610;2023-05-08T06:07:28;8;8;
55276;PMS5003;41136;51.478;-2.610;2023-05-08T06:09:54;9;9;
55276;PMS5003;41136;51.478;-2.610;2023-05-08T06:12:19;8;8;
55276;PMS5003;41136;51.478;-2.610;2023-05-08T06:14:45;7;7;
55276;PMS5003;41136;51.478;-2.610;2023-05-08T06:17:11;10;9;
55276;PMS5003;41136;51.478;-2.610;2023-05-08T06:19:36;12;7;
55276;PMS5003;41136;51.478;-2.610;2023-05-08T06:22:01;9;9;
55276;PMS5003;41136;51.478;-2.610;2023-05-08T06:24:27;7;7;
55276;PMS5003;41136;51.478;-2.610;2023-05-08T06:26:53;15;12;
55276;PMS5003;41136;51.478;-2.610;2023-05-08T06:29:18;11;10;
55276;PMS5003;41136;51.478;-2.610;2023-05-08T06:31:44;13;12;
55276;PMS5003;41136;51.478;-2.610;2023-05-08T06:34:10;13;12;
55276;PMS5003;41136;51.478;-2.610;2023-05-08T06:36:36;11;9;
55276;PMS5003;41136;51.478;-2.610;2023-05-08T06:39:00;11;11;
55276;PMS5003;41136;51.478;-2.610;2023-05-08T06:41:26;11;11;
55276;PMS5003;41136;51.478;-2.610;2023-05-08T06:43:52;11;10;
55276;PMS5003;41136;51.478;-2.610;2023-05-08T06:46:18;10;10;
55276;PMS5003;41136;51.478;-2.610;2023-05-08T06:48:43;10;10;
55276;PMS5003;41136;51.478;-2.610;2023-05-08T06:51:09;8;8;
55276;PMS5003;41136;51.478;-2.610;2023-05-08T06:53:34;11;10;
55276;PMS5003;41136;51.478;-2.610;2023-05-08T06:55:59;8;8;
55276;PMS5003;41136;51.478;-2.610;2023-05-08T06:58:25;7;7;
55276;PMS5003;41136;51.478;-2.610;2023-05-08T07:00:50;8;7;
55276;PMS5003;41136;51.478;-2.610;2023-05-08T07:03:15;9;8;
55276;PMS5003;41136;51.478;-2.610;2023-05-08T07:05:41;9;9;
55276;PMS5003;41136;51.478;-2.610;2023-05-08T07:08:06;5;5;
55276;PMS5003;41136;51.478;-2.610;2023-05-08T07:10:31;6;5;
55276;PMS5003;41136;51.478;-2.610;2023-05-08T07:12:56;6;6;
55276;PMS5003;41136;51.478;-2.610;2023-05-08T07:15:22;6;6;
55276;PMS5003;41136;51.478;-2.610;2023-05-08T07:17:47;6;4;
55276;PMS5003;41136;51.478;-2.610;2023-05-08T07:20:13;7;7;
55276;PMS5003;41136;51.478;-2.610;2023-05-08T07:22:38;4;4;
55276;PMS5003;41136;51.478;-2.610;2023-05-08T07:25:04;3;3;
55276;PMS5003;41136;51.478;-2.610;2023-05-08T07:27:29;5;4;
55276;PMS5003;41136;51.478;-2.610;2023-05-08T07:29:54;4;4;
55276;PMS5003;41136;51.478;-2.610;2023-05-08T07:32:20;3;3;
55276;PMS5003;41136;51.478;-2.610;2023-05-08T07:34:45;3;3;
55276;PMS5003;41136;51.478;-2.610;2023-05-08T07:37:10;4;4;
55276;PMS5003;41136;51.478;-2.610;2023-05-08T07:39:36;4;4;
55276;PMS5003;41136;51.478;-2.610;2023-05-08T07:42:01;5;5;
55276;PMS5003;41136;51.478;-2.610;2023-05-08T07:44:26;3;3;
55276;PMS5003;41136;51.478;-2.610;2023-05-08T07:46:52;2;2;
55276;PMS5003;41136;51.478;-2.610;2023-05-08T07:49:17;1;1;
55276;PMS5003;41136;51.478;-2.610;2023-05-08T07:51:42;2;2;
55276;PMS5003;41136;51.478;-2.610;2023-05-08T07:54:08;2;2;
55276;PMS5003;41136;51.478;-2.610;2023-05-08T07:56:33;2;2;
55276;PMS5003;41136;51.478;-2.610;2023-05-08T07:58:58;3;3;
55276;PMS5003;41136;51.478;-2.610;2023-05-08T08:01:24;2;2;
55276;PMS5003;41136;51.478;-2.610;2023-05-08T08:03:49;2;1;
55276;PMS5003;41136;51.478;-2.610;2023-05-08T08:06:14;1;1;
55276;PMS5003;41136;51.478;-2.610;2023-05-08T08:08:39;3;3;
55276;PMS5003;41136;51.478;-2.610;2023-05-08T08:11:05;1;1;
55276;PMS5003;41136;51.478;-2.610;2023-05-08T08:13:30;3;3;
55276;PMS5003;41136;51.478;-2.610;2023-05-08T08:15:55;2;2;
55276;PMS5003;41136;51.478;-2.610;2023-05-08T08:18:21;3;1;
55276;PMS5003;41136;51.478;-2.610;2023-05-08T08:20:46;1;1;
55276;PMS5003;41136;51.478;-2.610;2023-05-08T08:23:12;0;0;
55276;PMS5003;41136;51.478;-2.610;2023-05-08T08:25:37;1;1;
55276;PMS5003;41136;51.478;-2.610;2023-05-08T08:28:02;0;0;
55276;PMS5003;41136;51.478;-2.610;2023-05-08T08:30:27;1;1;
55276;PMS5003;41136;51.478;-2.610;2023-05-08T08:32:53;2;2;
55276;PMS5003;41136;51.478;-2.610;2023-05-08T08:35:18;1;1;
55276;PMS5003;41136;51.478;-2.610;2023-05-08T08:37:43;1;1;
55276;PMS5003;41136;51.478;-2.610;2023-05-08T08:40:09;0;0;
55276;PMS5003;41136;51.478;-2.610;2023-05-08T08:42:34;1;1;
55276;PMS5003;41136;51.478;-2.610;2023-05-08T08:44:59;0;0;
55276;PMS5003;41136;51.478;-2.610;2023-05-08T08:47:26;1;1;
55276;PMS5003;41136;51.478;-2.610;2023-05-08T08:49:50;1;1;
55276;PMS5003;41136;51.478;-2.610;2023-05-08T08:52:18;1;1;
55276;PMS5003;41136;51.478;-2.610;2023-05-08T08:54:40;3;2;
55276;PMS5003;41136;51.478;-2.610;2023-05-08T08:57:06;0;0;
55276;PMS5003;41136;51.478;-2.610;2023-05-08T08:59:31;0;0;
55276;PMS5003;41136;51.478;-2.610;2023-05-08T09:01:57;1;1;
55276;PMS5003;41136;51.478;-2.610;2023-05-08T09:04:22;0;0;
55276;PMS5003;41136;51.478;-2.610;2023-05-08T09:06:47;0;0;
55276;PMS5003;41136;51.478;-2.610;2023-05-08T09:09:12;1;1;
55276;PMS5003;41136;51.478;-2.610;2023-05-08T09:11:38;1;1;
55276;PMS5003;41136;51.478;-2.610;2023-05-08T09:14:03;1;1;
55276;PMS5003;41136;51.478;-2.610;2023-05-08T09:16:28;1;1;
55276;PMS5003;41136;51.478;-2.610;2023-05-08T09:18:54;1;1;
55276;PMS5003;41136;51.478;-2.610;2023-05-08T09:21:19;0;0;
55276;PMS5003;41136;51.478;-2.610;2023-05-08T09:26:09;2;2;
55276;PMS5003;41136;51.478;-2.610;2023-05-08T09:28:35;3;3;
55276;PMS5003;41136;51.478;-2.610;2023-05-08T09:31:00;2;2;
55276;PMS5003;41136;51.478;-2.610;2023-05-08T09:33:26;2;2;
55276;PMS5003;41136;51.478;-2.610;2023-05-08T09:35:51;2;2;
55276;PMS5003;41136;51.478;-2.610;2023-05-08T09:40:41;5;2;
55276;PMS5003;41136;51.478;-2.610;2023-05-08T09:43:10;3;3;
55276;PMS5003;41136;51.478;-2.610;2023-05-08T09:45:32;3;3;
55276;PMS5003;41136;51.478;-2.610;2023-05-08T09:47:57;2;2;
55276;PMS5003;41136;51.478;-2.610;2023-05-08T09:50:23;2;2;
55276;PMS5003;41136;51.478;-2.610;2023-05-08T09:52:48;7;4;
55276;PMS5003;41136;51.478;-2.610;2023-05-08T09:55:13;2;2;
55276;PMS5003;41136;51.478;-2.610;2023-05-08T09:57:39;3;3;
55276;PMS5003;41136;51.478;-2.610;2023-05-08T10:00:05;3;3;
55276;PMS5003;41136;51.478;-2.610;2023-05-08T10:02:29;2;2;
55276;PMS5003;41136;51.478;-2.610;2023-05-08T10:04:54;1;1;
55276;PMS5003;41136;51.478;-2.610;2023-05-08T10:12:10;4;3;
55276;PMS5003;41136;51.478;-2.610;2023-05-08T10:14:36;3;3;
55276;PMS5003;41136;51.478;-2.610;2023-05-08T10:17:01;2;2;
55276;PMS5003;41136;51.478;-2.610;2023-05-08T10:19:26;3;3;
55276;PMS5003;41136;51.478;-2.610;2023-05-08T10:21:52;5;4;
55276;PMS5003;41136;51.478;-2.610;2023-05-08T10:24:17;5;4;
55276;PMS5003;41136;51.478;-2.610;2023-05-08T10:26:43;5;5;
55276;PMS5003;41136;51.478;-2.610;2023-05-08T10:29:10;6;5;
55276;PMS5003;41136;51.478;-2.610;2023-05-08T10:31:34;4;4;
55276;PMS5003;41136;51.478;-2.610;2023-05-08T10:33:59;6;6;
55276;PMS5003;41136;51.478;-2.610;2023-05-08T10:36:24;5;4;
55276;PMS5003;41136;51.478;-2.610;2023-05-08T10:38:49;5;5;
55276;PMS5003;41136;51.478;-2.610;2023-05-08T10:41:15;5;5;
55276;PMS5003;41136;51.478;-2.610;2023-05-08T10:43:41;2;2;
55276;PMS5003;41136;51.478;-2.610;2023-05-08T10:46:06;4;4;
55276;PMS5003;41136;51.478;-2.610;2023-05-08T10:48:31;2;2;
55276;PMS5003;41136;51.478;-2.610;2023-05-08T10:50:58;6;5;
55276;PMS5003;41136;51.478;-2.610;2023-05-08T10:53:24;4;4;
55276;PMS5003;41136;51.478;-2.610;2023-05-08T10:55:49;4;4;
55276;PMS5003;41136;51.478;-2.610;2023-05-08T10:58:13;5;3;
55276;PMS5003;41136;51.478;-2.610;2023-05-08T11:03:04;3;2;
55276;PMS5003;41136;51.478;-2.610;2023-05-08T11:05:28;4;4;
55276;PMS5003;41136;51.478;-2.610;2023-05-08T11:07:54;3;3;
55276;PMS5003;41136;51.478;-2.610;2023-05-08T11:10:19;4;3;
55276;PMS5003;41136;51.478;-2.610;2023-05-08T11:12:45;4;4;
55276;PMS5003;41136;51.478;-2.610;2023-05-08T11:15:09;3;3;
55276;PMS5003;41136;51.478;-2.610;2023-05-08T11:17:35;2;2;
55276;PMS5003;41136;51.478;-2.610;2023-05-08T11:20:01;5;4;
55276;PMS5003;41136;51.478;-2.610;2023-05-08T11:22:26;3;3;
55276;PMS5003;41136;51.478;-2.610;2023-05-08T11:24:53;4;4;
55276;PMS5003;41136;51.478;-2.610;2023-05-08T11:27:16;4;4;
55276;PMS5003;41136;51.478;-2.610;2023-05-08T11:29:41;4;4;
55276;PMS5003;41136;51.478;-2.610;2023-05-08T11:32:07;3;3;
55276;PMS5003;41136;51.478;-2.610;2023-05-08T11:37:00;6;4;
55276;PMS5003;41136;51.478;-2.610;2023-05-08T11:39:22;3;3;
55276;PMS5003;41136;51.478;-2.610;2023-05-08T11:41:48;3;3;
55276;PMS5003;41136;51.478;-2.610;2023-05-08T11:44:16;4;4;
55276;PMS5003;41136;51.478;-2.610;2023-05-08T11:46:39;3;3;
55276;PMS5003;41136;51.478;-2.610;2023-05-08T11:49:04;5;4;
55276;PMS5003;41136;51.478;-2.610;2023-05-08T11:51:29;4;4;
55276;PMS5003;41136;51.478;-2.610;2023-05-08T11:53:54;4;4;
55276;PMS5003;41136;51.478;-2.610;2023-05-08T11:56:19;5;5;
55276;PMS5003;41136;51.478;-2.610;2023-05-08T11:58:45;3;3;
55276;PMS5003;41136;51.478;-2.610;2023-05-08T12:01:11;3;2;
55276;PMS5003;41136;51.478;-2.610;2023-05-08T12:03:35;5;5;
55276;PMS5003;41136;51.478;-2.610;2023-05-08T12:06:01;3;3;
55276;PMS5003;41136;51.478;-2.610;2023-05-08T12:08:26;5;4;
55276;PMS5003;41136;51.478;-2.610;2023-05-08T12:10:52;4;4;
55276;PMS5003;41136;51.478;-2.610;2023-05-08T12:13:16;5;3;
55276;PMS5003;41136;51.478;-2.610;2023-05-08T12:15:42;3;3;
55276;PMS5003;41136;51.478;-2.610;2023-05-08T12:18:07;4;4;
55276;PMS5003;41136;51.478;-2.610;2023-05-08T12:20:32;4;4;
55276;PMS5003;41136;51.478;-2.610;2023-05-08T12:22:57;3;3;
55276;PMS5003;41136;51.478;-2.610;2023-05-08T12:25:24;5;5;
55276;PMS5003;41136;51.478;-2.610;2023-05-08T12:27:48;5;5;
55276;PMS5003;41136;51.478;-2.610;2023-05-08T12:30:13;3;3;
55276;PMS5003;41136;51.478;-2.610;2023-05-08T12:32:39;3;3;
55276;PMS5003;41136;51.478;-2.610;2023-05-08T12:35:04;2;2;
55276;PMS5003;41136;51.478;-2.610;2023-05-08T12:37:29;3;3;
55276;PMS5003;41136;51.478;-2.610;2023-05-08T12:39:54;5;4;
55276;PMS5003;41136;51.478;-2.610;2023-05-08T12:42:20;3;3;
55276;PMS5003;41136;51.478;-2.610;2023-05-08T12:44:49;3;3;
55276;PMS5003;41136;51.478;-2.610;2023-05-08T12:47:10;3;3;
55276;PMS5003;41136;51.478;-2.610;2023-05-08T12:49:36;3;3;
55276;PMS5003;41136;51.478;-2.610;2023-05-08T12:52:02;5;3;
55276;PMS5003;41136;51.478;-2.610;2023-05-08T12:54:31;2;2;
55276;PMS5003;41136;51.478;-2.610;2023-05-08T12:56:51;3;3;
55276;PMS5003;41136;51.478;-2.610;2023-05-08T13:01:42;3;3;
55276;PMS5003;41136;51.478;-2.610;2023-05-08T13:04:07;2;2;
55276;PMS5003;41136;51.478;-2.610;2023-05-08T13:06:32;4;4;
55276;PMS5003;41136;51.478;-2.610;2023-05-08T13:08:58;3;3;
55276;PMS5003;41136;51.478;-2.610;2023-05-08T13:13:48;3;3;
55276;PMS5003;41136;51.478;-2.610;2023-05-08T13:16:14;3;3;
55276;PMS5003;41136;51.478;-2.610;2023-05-08T13:18:39;2;2;
55276;PMS5003;41136;51.478;-2.610;2023-05-08T13:21:04;1;1;
55276;PMS5003;41136;51.478;-2.610;2023-05-08T13:23:29;2;2;
55276;PMS5003;41136;51.478;-2.610;2023-05-08T13:25:55;3;2;
55276;PMS5003;41136;51.478;-2.610;2023-05-08T13:28:20;4;4;
55276;PMS5003;41136;51.478;-2.610;2023-05-08T13:30:45;2;2;
55276;PMS5003;41136;51.478;-2.610;2023-05-08T13:33:10;3;3;
55276;PMS5003;41136;51.478;-2.610;2023-05-08T13:35:37;2;2;
55276;PMS5003;41136;51.478;-2.610;2023-05-08T13:38:01;1;1;
55276;PMS5003;41136;51.478;-2.610;2023-05-08T13:40:26;2;2;
55276;PMS5003;41136;51.478;-2.610;2023-05-08T13:42:51;2;2;
55276;PMS5003;41136;51.478;-2.610;2023-05-08T13:45:17;0;0;
55276;PMS5003;41136;51.478;-2.610;2023-05-08T13:47:42;4;3;
55276;PMS5003;41136;51.478;-2.610;2023-05-08T13:50:08;0;0;
55276;PMS5003;41136;51.478;-2.610;2023-05-08T13:52:33;2;2;
55276;PMS5003;41136;51.478;-2.610;2023-05-08T13:54:58;1;1;
55276;PMS5003;41136;51.478;-2.610;2023-05-08T13:57:23;1;1;
55276;PMS5003;41136;51.478;-2.610;2023-05-08T13:59:48;3;3;
55276;PMS5003;41136;51.478;-2.610;2023-05-08T14:02:14;3;3;
55276;PMS5003;41136;51.478;-2.610;2023-05-08T14:04:39;5;4;
55276;PMS5003;41136;51.478;-2.610;2023-05-08T14:07:04;3;3;
55276;PMS5003;41136;51.478;-2.610;2023-05-08T14:09:29;2;2;
55276;PMS5003;41136;51.478;-2.610;2023-05-08T14:11:55;3;3;
55276;PMS5003;41136;51.478;-2.610;2023-05-08T14:14:20;4;4;
55276;PMS5003;41136;51.478;-2.610;2023-05-08T14:16:45;4;4;
55276;PMS5003;41136;51.478;-2.610;2023-05-08T14:19:10;4;3;
55276;PMS5003;41136;51.478;-2.610;2023-05-08T14:21:36;6;6;
55276;PMS5003;41136;51.478;-2.610;2023-05-08T14:24:01;3;3;
55276;PMS5003;41136;51.478;-2.610;2023-05-08T14:26:26;11;8;
55276;PMS5003;41136;51.478;-2.610;2023-05-08T14:28:51;10;8;
55276;PMS5003;41136;51.478;-2.610;2023-05-08T14:31:17;25;24;
55276;PMS5003;41136;51.478;-2.610;2023-05-08T14:33:42;8;8;
55276;PMS5003;41136;51.478;-2.610;2023-05-08T14:36:08;12;9;
55276;PMS5003;41136;51.478;-2.610;2023-05-08T14:38:33;7;6;
55276;PMS5003;41136;51.478;-2.610;2023-05-08T14:40:58;5;5;
55276;PMS5003;41136;51.478;-2.610;2023-05-08T14:43:23;5;5;
55276;PMS5003;41136;51.478;-2.610;2023-05-08T14:45:48;3;3;
55276;PMS5003;41136;51.478;-2.610;2023-05-08T14:48:14;4;4;
55276;PMS5003;41136;51.478;-2.610;2023-05-08T14:50:39;5;4;
55276;PMS5003;41136;51.478;-2.610;2023-05-08T14:53:04;5;5;
55276;PMS5003;41136;51.478;-2.610;2023-05-08T14:55:30;8;6;
55276;PMS5003;41136;51.478;-2.610;2023-05-08T14:57:55;7;6;
55276;PMS5003;41136;51.478;-2.610;2023-05-08T15:00:20;9;8;
55276;PMS5003;41136;51.478;-2.610;2023-05-08T15:02:45;5;5;
55276;PMS5003;41136;51.478;-2.610;2023-05-08T15:05:11;9;7;
55276;PMS5003;41136;51.478;-2.610;2023-05-08T15:07:36;9;9;
55276;PMS5003;41136;51.478;-2.610;2023-05-08T15:10:01;6;6;
55276;PMS5003;41136;51.478;-2.610;2023-05-08T15:12:26;8;7;
55276;PMS5003;41136;51.478;-2.610;2023-05-08T15:14:52;11;11;
55276;PMS5003;41136;51.478;-2.610;2023-05-08T15:17:17;16;15;
55276;PMS5003;41136;51.478;-2.610;2023-05-08T15:19:42;12;10;
55276;PMS5003;41136;51.478;-2.610;2023-05-08T15:22:08;10;8;
55276;PMS5003;41136;51.478;-2.610;2023-05-08T15:24:33;8;8;
55276;PMS5003;41136;51.478;-2.610;2023-05-08T15:26:59;10;9;
55276;PMS5003;41136;51.478;-2.610;2023-05-08T15:29:24;10;8;
55276;PMS5003;41136;51.478;-2.610;2023-05-08T15:31:50;11;9;
55276;PMS5003;41136;51.478;-2.610;2023-05-08T15:34:16;6;6;
55276;PMS5003;41136;51.478;-2.610;2023-05-08T15:36:41;10;9;
55276;PMS5003;41136;51.478;-2.610;2023-05-08T15:39:07;11;10;
55276;PMS5003;41136;51.478;-2.610;2023-05-08T15:41:32;12;12;
55276;PMS5003;41136;51.478;-2.610;2023-05-08T15:43:57;11;11;
55276;PMS5003;41136;51.478;-2.610;2023-05-08T15:46:22;10;9;
55276;PMS5003;41136;51.478;-2.610;2023-05-08T15:48:48;8;6;
55276;PMS5003;41136;51.478;-2.610;2023-05-08T15:51:13;7;7;
55276;PMS5003;41136;51.478;-2.610;2023-05-08T15:53:39;12;10;
55276;PMS5003;41136;51.478;-2.610;2023-05-08T15:56:04;9;9;
55276;PMS5003;41136;51.478;-2.610;2023-05-08T15:58:30;11;9;
55276;PMS5003;41136;51.478;-2.610;2023-05-08T16:04:09;13;10;
55276;PMS5003;41136;51.478;-2.610;2023-05-08T16:06:35;7;6;
55276;PMS5003;41136;51.478;-2.610;2023-05-08T16:09:00;5;5;
55276;PMS5003;41136;51.478;-2.610;2023-05-08T16:11:28;6;5;
55276;PMS5003;41136;51.478;-2.610;2023-05-08T16:13:50;5;5;
55276;PMS5003;41136;51.478;-2.610;2023-05-08T16:16:16;4;4;
55276;PMS5003;41136;51.478;-2.610;2023-05-08T16:18:41;6;5;
55276;PMS5003;41136;51.478;-2.610;2023-05-08T16:21:08;5;5;
55276;PMS5003;41136;51.478;-2.610;2023-05-08T16:23:32;8;5;
55276;PMS5003;41136;51.478;-2.610;2023-05-08T16:25:57;6;6;
55276;PMS5003;41136;51.478;-2.610;2023-05-08T16:30:44;9;7;
55276;PMS5003;41136;51.478;-2.610;2023-05-08T16:33:09;6;5;
55276;PMS5003;41136;51.478;-2.610;2023-05-08T16:35:34;4;3;
55276;PMS5003;41136;51.478;-2.610;2023-05-08T16:40:47;6;5;
55276;PMS5003;41136;51.478;-2.610;2023-05-08T16:43:13;6;6;
55276;PMS5003;41136;51.478;-2.610;2023-05-08T16:45:38;6;6;
55276;PMS5003;41136;51.478;-2.610;2023-05-08T16:48:03;3;3;
55276;PMS5003;41136;51.478;-2.610;2023-05-08T16:52:42;1;1;
55276;PMS5003;41136;51.478;-2.610;2023-05-08T16:55:08;5;5;